Flight Track Log - Related Links

Times and Time Zones

All times are in EDT time to prevent confusion due to time zone crossing. See the N379B flight status page for this flight to view local times or setup timezone preferences in your user account.

Time Position Orientation Groundspeed Altitude Reporting Facility
EDT Latitude Longitude Course Direction KTS MPH feet Rate Location/Type
Tue 08:02:15 AM 27.2186 -80.1686 326° Northwest 228 262 4,700  Level Miami Center
Tue 08:03:15 AM 27.2503 -80.2536 293° West 202 232 6,000 3,746 Climbing Miami Center
Tue 08:05:16 AM 27.3472 -80.3853 310° West 268 308 16,000 3,333 Climbing Miami Center
Tue 08:06:15 AM 27.3958 -80.4428 314° West 283 326 16,000  Level Miami Center
Tue 08:07:00 AM 27.3248 -80.6061 326° Northwest  Level FlightAware Approximate
Tue 08:07:15 AM 27.4547 -80.5147 313° West 300 345 16,000  Level Miami Center
Tue 08:08:15 AM 27.5275 -80.6014 313° West 330 380 16,000  Level Miami Center
Tue 08:09:16 AM 27.5922 -80.6808 313° West 336 387 16,000  Level Miami Center
Tue 08:10:16 AM 27.6489 -80.7508 312° West 336 387 16,000  Level Miami Center
Tue 08:11:15 AM 27.7156 -80.8303 313° West 330 380 16,000 -50 Level Miami Center
Tue 08:12:16 AM 27.7681 -80.8956 312° West 317 365 15,900 -1,148 Descending Miami Center
Tue 08:14:18 AM 27.9000 -81.0500 314° West 310 357 12,500 -1,615 Descending Orlando TRACON
Tue 08:15:18 AM 27.9500 -81.1167 310° West 299 344 11,000 -789 Descending Orlando TRACON
Tue 08:16:12 AM 28.0333 -81.1500 341° North 306 352 11,000 -650 Level Orlando TRACON
Tue 08:17:18 AM 28.1167 -81.1833 341° North 311 358 9,700 -952 Descending Orlando TRACON
Tue 08:18:18 AM 28.2000 -81.1833 360° North 299 344 9,000 -333 Descending Orlando TRACON
Tue 08:19:24 AM 28.3000 -81.1833 360° North 311 358 9,000  Level Orlando TRACON
Tue 08:20:24 AM 28.3833 -81.2000 350° North 296 341 9,000 -714 Level Orlando TRACON
Tue 08:21:30 AM 28.4667 -81.2000 360° North 256 295 7,500 -1,148 Descending Orlando TRACON
Tue 08:22:19 AM 28.5000 -81.2000 360° North 202 232 6,800 -1,200 Descending Orlando TRACON
Tue 08:23:25 AM 28.5667 -81.2167 348° North 215 247 5,200 -1,400 Descending Orlando TRACON
Tue 08:24:19 AM 28.6167 -81.2333 344° North 210 242 4,000 -600 Descending Orlando TRACON
Tue 08:25:25 AM 28.6333 -81.3000 286° West 181 208 4,000 -95 Level Orlando TRACON
Tue 08:26:25 AM 28.6167 -81.3333 240° Southwest 131 151 3,800 -421 Descending Orlando TRACON
Tue 08:27:19 AM 28.5833 -81.3333 180° South 138 159 3,200 -600 Descending Orlando TRACON
Tue 08:28:25 AM 28.5333 -81.3333 180° South 155 178 2,600 -810 Descending Orlando TRACON
Tue 08:29:25 AM 28.5000 -81.3333 180° South 143 165 1,500 -1,100 Descending Orlando TRACON

Login

Don't have an account? Register now (free) for customized features, flight alerts, and more!